Terminal Aerodrome Forecast
Issued by NWS Greer, SC

Home | Current Version | Previous Version | Text Only | Print | Product List | Glossary On
Versions: 1 2 3 4 5 6 7 8 9 10 11 12 13 14 15 16 17 18 19 20 21 22 23 24 25 26 27 28 29 30 31 32
000
FTUS42 KGSP 261127
TAFAVL
TAF
KAVL 261127Z 2612/2712 34006KT P6SM SCT250
     FM262000 35007KT P6SM FEW050 FEW250
     FM270000 33003KT P6SM FEW070=

USA.gov is the U.S. government's official web portal to all federal, state and local government web resources and services.